createdAt,value
2022-11-25T00:00:33.710Z,100497.00
2022-11-25T00:03:00.457Z,100491.09
2022-11-25T00:05:28.441Z,100490.47
2022-11-25T00:07:55.187Z,100491.81
2022-11-25T00:10:21.821Z,100487.81
2022-11-25T00:12:48.504Z,100488.06
2022-11-25T00:15:15.088Z,100478.06
2022-11-25T00:17:41.736Z,100468.66
2022-11-25T00:20:08.605Z,100472.06
2022-11-25T00:22:35.197Z,100472.22
2022-11-25T00:25:01.895Z,100480.22
2022-11-25T00:27:28.805Z,100470.38
2022-11-25T00:29:55.520Z,100470.91
2022-11-25T00:32:22.105Z,100475.00
2022-11-25T00:34:48.810Z,100470.75
2022-11-25T00:37:15.534Z,100476.31
2022-11-25T00:39:42.206Z,100467.84
2022-11-25T00:42:29.126Z,100466.16
2022-11-25T00:44:55.724Z,100458.75
2022-11-25T00:47:22.448Z,100464.47
2022-11-25T00:49:51.522Z,100453.44
2022-11-25T00:52:23.677Z,100452.41
2022-11-25T00:54:50.980Z,100457.75
2022-11-25T00:57:19.661Z,100461.28
2022-11-25T00:59:46.550Z,100455.13
2022-11-25T01:02:14.834Z,100453.56
2022-11-25T01:04:43.820Z,100450.94
2022-11-25T01:07:10.533Z,100452.84
2022-11-25T01:09:37.675Z,100442.50
2022-11-25T01:12:04.929Z,100449.50
2022-11-25T01:14:31.628Z,100438.91
2022-11-25T01:16:58.245Z,100440.78
2022-11-25T01:19:25.366Z,100445.28
2022-11-25T01:21:51.998Z,100446.00
2022-11-25T01:24:18.717Z,100441.66
2022-11-25T01:26:45.696Z,100441.03
2022-11-25T01:29:17.062Z,100439.13
2022-11-25T01:31:44.511Z,100449.72
2022-11-25T01:34:19.914Z,100447.94
2022-11-25T01:36:47.068Z,100445.28
2022-11-25T01:39:17.930Z,100441.59
2022-11-25T01:41:44.809Z,100434.41
2022-11-25T01:44:14.494Z,100441.38
2022-11-25T01:47:12.359Z,100437.06
2022-11-25T01:50:11.550Z,100443.53
2022-11-25T01:52:40.582Z,100437.31
2022-11-25T01:55:13.026Z,100434.47
2022-11-25T01:57:48.261Z,100432.22
2022-11-25T02:00:15.455Z,100443.94
2022-11-25T02:02:46.467Z,100435.88
2022-11-25T02:05:17.303Z,100443.91
2022-11-25T02:07:46.340Z,100440.69
2022-11-25T02:10:17.600Z,100431.84
2022-11-25T02:12:45.992Z,100427.13
2022-11-25T02:15:13.821Z,100434.72
2022-11-25T02:17:40.948Z,100418.50
2022-11-25T02:20:07.904Z,100415.78
2022-11-25T02:23:14.889Z,100408.81
2022-11-25T02:25:44.349Z,100422.75
2022-11-25T02:28:17.728Z,100413.91
2022-11-25T02:30:46.283Z,100422.84
2022-11-25T02:33:14.045Z,100419.41
2022-11-25T02:35:55.313Z,100429.25
2022-11-25T02:38:21.901Z,100428.97
2022-11-25T02:41:16.814Z,100427.25
2022-11-25T02:43:46.806Z,100430.56
2022-11-25T02:46:21.595Z,100437.84
2022-11-25T02:51:36.996Z,100435.13
2022-11-25T02:54:03.730Z,100427.25
2022-11-25T02:56:32.712Z,100423.94
2022-11-25T02:58:59.544Z,100425.63
2022-11-25T03:01:29.839Z,100430.03
2022-11-25T03:03:57.359Z,100440.03
2022-11-25T03:06:27.824Z,100436.59
2022-11-25T03:08:54.734Z,100433.03
2022-11-25T03:11:21.378Z,100435.94
2022-11-25T03:13:48.079Z,100436.00
2022-11-25T03:16:15.205Z,100433.63
2022-11-25T03:18:44.309Z,100435.41
2022-11-25T03:21:10.906Z,100444.19
2022-11-25T03:23:37.509Z,100438.91
2022-11-25T03:26:07.329Z,100444.03
2022-11-25T03:28:34.269Z,100447.53
2022-11-25T03:31:00.932Z,100448.44
2022-11-25T03:33:29.074Z,100445.75
2022-11-25T03:35:56.307Z,100450.81
2022-11-25T03:38:23.015Z,100456.09
2022-11-25T03:40:50.579Z,100451.88
2022-11-25T03:43:17.813Z,100457.13
2022-11-25T03:45:44.507Z,100460.66
2022-11-25T03:48:12.250Z,100469.34
2022-11-25T03:50:38.993Z,100485.38
2022-11-25T03:53:05.630Z,100486.31
2022-11-25T03:55:32.248Z,100473.13
2022-11-25T03:57:59.576Z,100488.03
2022-11-25T04:00:26.218Z,100484.63
2022-11-25T04:03:00.395Z,100487.00
2022-11-25T04:05:27.104Z,100498.47
2022-11-25T04:07:58.230Z,100502.00
2022-11-25T04:10:25.796Z,100508.66
2022-11-25T04:12:54.070Z,100498.09
2022-11-25T04:15:25.685Z,100504.69
2022-11-25T04:17:56.454Z,100498.28
2022-11-25T04:20:23.514Z,100498.13
2022-11-25T04:22:56.428Z,100500.72
2022-11-25T04:25:23.188Z,100498.09
2022-11-25T04:27:50.055Z,100504.25
2022-11-25T04:30:22.033Z,100510.41
2022-11-25T04:32:48.747Z,100519.97
2022-11-25T04:35:16.615Z,100520.84
2022-11-25T04:37:46.715Z,100520.84
2022-11-25T04:40:14.085Z,100517.25
2022-11-25T04:42:45.216Z,100520.78
2022-11-25T04:45:24.112Z,100515.56
2022-11-25T04:47:53.003Z,100523.47
2022-11-25T04:50:21.772Z,100529.69
2022-11-25T04:53:08.655Z,100530.53
2022-11-25T04:55:35.523Z,100527.03
2022-11-25T04:58:06.401Z,100532.38
2022-11-25T05:00:34.771Z,100534.78
2022-11-25T05:03:03.839Z,100540.06
2022-11-25T05:05:32.579Z,100551.47
2022-11-25T05:07:59.329Z,100545.22
2022-11-25T05:10:27.293Z,100552.31
2022-11-25T05:12:53.943Z,100556.88
2022-11-25T05:15:22.068Z,100554.91
2022-11-25T05:17:48.757Z,100556.59
2022-11-25T05:20:19.666Z,100551.97
2022-11-25T05:22:47.468Z,100552.88
2022-11-25T05:25:20.858Z,100552.19
2022-11-25T05:28:12.667Z,100549.56
2022-11-25T05:30:39.477Z,100551.09
2022-11-25T05:33:06.376Z,100538.75
2022-11-25T05:35:34.256Z,100534.34
2022-11-25T05:38:03.976Z,100539.88
2022-11-25T05:40:31.958Z,100549.53
2022-11-25T05:43:03.962Z,100556.41
2022-11-25T05:45:34.488Z,100569.88
2022-11-25T05:48:01.150Z,100560.75
2022-11-25T05:50:28.896Z,100563.25
2022-11-25T05:53:17.390Z,100564.91
2022-11-25T05:55:45.270Z,100559.91
2022-11-25T05:58:24.145Z,100568.66
2022-11-25T06:00:54.828Z,100571.28
2022-11-25T06:03:26.467Z,100577.47
2022-11-25T06:05:55.310Z,100573.94
2022-11-25T06:08:21.977Z,100579.94
2022-11-25T06:10:48.613Z,100586.13
2022-11-25T06:13:15.245Z,100593.13
2022-11-25T06:15:43.361Z,100590.41
2022-11-25T06:18:16.770Z,100597.31
2022-11-25T06:20:43.863Z,100596.44
2022-11-25T06:23:10.570Z,100596.50
2022-11-25T06:25:38.412Z,100601.75
2022-11-25T06:28:13.795Z,100603.63
2022-11-25T06:30:46.254Z,100614.16
2022-11-25T06:33:22.707Z,100610.59
2022-11-25T06:35:50.280Z,100608.88
2022-11-25T06:38:16.882Z,100610.41
2022-11-25T06:40:43.558Z,100612.19
2022-11-25T06:43:10.158Z,100612.13
2022-11-25T06:45:36.721Z,100614.91
2022-11-25T06:48:03.475Z,100619.28
2022-11-25T06:50:30.247Z,100622.75
2022-11-25T06:52:56.820Z,100626.72
2022-11-25T06:55:23.860Z,100634.06
2022-11-25T06:57:53.291Z,100635.63
2022-11-25T07:00:22.554Z,100647.94
2022-11-25T07:02:49.178Z,100645.09
2022-11-25T07:05:15.871Z,100659.78
2022-11-25T07:07:42.548Z,100663.13
2022-11-25T07:10:09.456Z,100659.50
2022-11-25T07:12:36.020Z,100662.63
2022-11-25T07:15:02.706Z,100662.91
2022-11-25T07:17:29.286Z,100667.56
2022-11-25T07:19:55.857Z,100669.66
2022-11-25T07:22:23.046Z,100670.28
2022-11-25T07:24:49.624Z,100677.63
2022-11-25T07:27:16.312Z,100678.28
2022-11-25T07:30:18.882Z,100680.97
2022-11-25T07:32:35.641Z,100688.72
2022-11-25T07:35:02.185Z,100696.09
2022-11-25T07:37:29.477Z,100697.38
2022-11-25T07:39:56.018Z,100688.69
2022-11-25T07:42:22.592Z,100698.28
2022-11-25T07:44:49.336Z,100714.53
2022-11-25T07:47:40.580Z,100720.56
2022-11-25T07:50:08.211Z,100725.31
2022-11-25T07:52:37.805Z,100731.94
2022-11-25T07:55:04.709Z,100725.94
2022-11-25T07:57:31.310Z,100733.03
2022-11-25T07:59:57.904Z,100731.41
2022-11-25T08:02:24.631Z,100730.47
2022-11-25T08:04:51.253Z,100732.25
2022-11-25T08:07:17.907Z,100740.28
2022-11-25T08:09:44.674Z,100746.41
2022-11-25T08:12:11.319Z,100754.28
2022-11-25T08:14:37.888Z,100757.13
2022-11-25T08:17:06.024Z,100755.47
2022-11-25T08:19:32.733Z,100760.50
2022-11-25T08:21:59.310Z,100763.44
2022-11-25T08:24:26.195Z,100769.19
2022-11-25T08:26:54.435Z,100761.31
2022-11-25T08:29:21.105Z,100768.28
2022-11-25T08:31:47.706Z,100766.66
2022-11-25T08:34:23.381Z,100780.72
2022-11-25T08:36:56.316Z,100777.09
2022-11-25T08:39:50.513Z,100778.72
2022-11-25T08:42:09.806Z,100779.50
2022-11-25T08:44:36.726Z,100793.66
2022-11-25T08:47:03.462Z,100792.03
2022-11-25T08:49:32.804Z,100785.81
2022-11-25T08:52:02.848Z,100795.56
2022-11-25T08:54:29.517Z,100789.47
2022-11-25T08:56:56.124Z,100795.72
2022-11-25T08:59:22.883Z,100790.44
2022-11-25T09:01:49.666Z,100793.19
2022-11-25T09:04:16.494Z,100800.38
2022-11-25T09:06:43.171Z,100799.84
2022-11-25T09:09:09.809Z,100807.31
2022-11-25T09:11:36.595Z,100808.38
2022-11-25T09:14:03.341Z,100810.31
2022-11-25T09:16:30.254Z,100821.78
2022-11-25T09:18:57.061Z,100817.63
2022-11-25T09:21:24.961Z,100817.06
2022-11-25T09:23:53.944Z,100820.63
2022-11-25T09:26:26.454Z,100817.31
2022-11-25T09:28:53.300Z,100822.75
2022-11-25T09:31:20.690Z,100833.41
2022-11-25T09:33:48.005Z,100822.94
2022-11-25T09:36:16.198Z,100830.09
2022-11-25T09:38:46.307Z,100838.78
2022-11-25T09:41:54.458Z,100840.66
2022-11-25T09:45:13.458Z,100847.44
2022-11-25T09:48:00.915Z,100855.56
2022-11-25T09:50:39.742Z,100868.91
2022-11-25T09:53:21.605Z,100864.69
2022-11-25T09:55:52.615Z,100863.91
2022-11-25T09:58:27.830Z,100865.72
2022-11-25T10:00:54.810Z,100872.94
2022-11-25T10:03:43.347Z,100868.66
2022-11-25T10:06:20.728Z,100875.66
2022-11-25T10:08:54.851Z,100883.69
2022-11-25T10:11:44.827Z,100875.03
2022-11-25T10:14:11.430Z,100878.59
2022-11-25T10:16:38.381Z,100875.94
2022-11-25T10:19:38.288Z,100883.91
2022-11-25T10:22:30.202Z,100888.72
2022-11-25T10:24:59.026Z,100894.16
2022-11-25T10:27:42.279Z,100887.69
2022-11-25T10:30:32.039Z,100891.03
2022-11-25T10:33:19.456Z,100900.78
2022-11-25T10:35:49.673Z,100893.94
2022-11-25T10:38:22.682Z,100901.22
2022-11-25T10:40:50.766Z,100894.03
2022-11-25T10:43:17.579Z,100911.38
2022-11-25T10:45:53.982Z,100911.91
2022-11-25T10:48:44.583Z,100908.50
2022-11-25T10:51:31.837Z,100910.13
2022-11-25T10:54:27.212Z,100913.72
2022-11-25T10:57:00.203Z,100919.97
2022-11-25T10:59:38.754Z,100908.41
2022-11-25T11:02:29.868Z,100920.06
2022-11-25T11:05:03.456Z,100911.16
2022-11-25T11:07:33.483Z,100922.81
2022-11-25T11:10:15.480Z,100927.94
2022-11-25T11:13:17.535Z,100921.53
2022-11-25T11:15:45.233Z,100921.56
2022-11-25T11:18:15.026Z,100933.06
2022-11-25T11:20:49.602Z,100938.34
2022-11-25T11:23:16.761Z,100942.50
2022-11-25T11:25:55.676Z,100935.47
2022-11-25T11:28:34.982Z,100939.19
2022-11-25T11:31:08.003Z,100941.19
2022-11-25T11:33:41.514Z,100943.03
2022-11-25T11:36:15.543Z,100943.50
2022-11-25T11:38:57.596Z,100935.63
2022-11-25T11:41:34.164Z,100931.38
2022-11-25T11:44:06.233Z,100941.25
2022-11-25T11:46:40.963Z,100941.44
2022-11-25T11:49:43.640Z,100931.53
2022-11-25T11:52:19.572Z,100954.28
2022-11-25T11:54:57.642Z,100955.75
2022-11-25T11:57:33.567Z,100965.50
2022-11-25T12:00:04.581Z,100965.13
2022-11-25T12:03:01.545Z,100961.38
2022-11-25T12:05:35.437Z,100961.66
2022-11-25T12:08:18.895Z,100975.69
2022-11-25T12:10:50.522Z,100976.47
2022-11-25T12:13:32.738Z,100978.53
2022-11-25T12:16:10.799Z,100985.00
2022-11-25T12:19:04.843Z,100972.56
2022-11-25T12:21:51.576Z,100982.34
2022-11-25T12:24:39.931Z,100990.34
2022-11-25T12:27:09.424Z,100992.13
2022-11-25T12:29:49.542Z,101000.66
2022-11-25T12:32:37.853Z,100990.13
2022-11-25T12:35:10.215Z,101002.78
2022-11-25T12:37:45.895Z,101010.41
2022-11-25T12:40:15.780Z,101006.31
2022-11-25T12:42:43.396Z,101013.28
2022-11-25T12:45:17.243Z,101008.22
2022-11-25T12:47:44.758Z,101017.28
2022-11-25T12:50:17.862Z,101014.66
2022-11-25T12:52:53.629Z,101014.91
2022-11-25T12:55:28.756Z,101020.88
2022-11-25T12:58:04.335Z,101025.41
2022-11-25T13:00:47.029Z,101021.06
2022-11-25T13:03:31.303Z,101033.13
2022-11-25T13:06:33.740Z,101029.72
2022-11-25T13:09:03.031Z,101035.78
2022-11-25T13:11:48.841Z,101042.03
2022-11-25T13:14:18.846Z,101043.53
2022-11-25T13:16:47.523Z,101042.81
2022-11-25T13:19:19.266Z,101052.56
2022-11-25T13:22:23.571Z,101057.22
2022-11-25T13:24:50.497Z,101057.38
2022-11-25T13:27:53.733Z,101055.03
2022-11-25T13:30:39.714Z,101062.47
2022-11-25T13:33:09.379Z,101067.97
2022-11-25T13:35:37.473Z,101068.72
2022-11-25T13:38:08.541Z,101075.81
2022-11-25T13:40:39.115Z,101078.50
2022-11-25T13:43:22.364Z,101094.25
2022-11-25T13:45:49.185Z,101080.94
2022-11-25T13:48:22.028Z,101087.38
2022-11-25T13:51:10.812Z,101089.34
2022-11-25T13:53:37.892Z,101103.63
2022-11-25T13:56:30.445Z,101104.16
2022-11-25T13:59:13.736Z,101111.06
2022-11-25T14:01:42.272Z,101117.94
2022-11-25T14:04:10.699Z,101115.38
2022-11-25T14:07:03.940Z,101122.31
2022-11-25T14:10:08.256Z,101121.41
2022-11-25T14:12:53.481Z,101125.09
2022-11-25T14:15:51.352Z,101138.94
2022-11-25T14:18:51.205Z,101135.50
2022-11-25T14:21:35.282Z,101136.28
2022-11-25T14:24:36.349Z,101135.50
2022-11-25T14:27:04.788Z,101139.13
2022-11-25T14:29:46.180Z,101140.75
2022-11-25T14:32:17.859Z,101138.84
2022-11-25T14:34:56.952Z,101144.28
2022-11-25T14:37:29.378Z,101144.22
2022-11-25T14:39:59.925Z,101149.59
2022-11-25T14:42:31.449Z,101148.19
2022-11-25T14:45:04.165Z,101157.44
2022-11-25T14:47:37.634Z,101156.41
2022-11-25T14:53:06.278Z,101153.56
2022-11-25T14:55:32.922Z,101159.03
2022-11-25T14:57:59.696Z,101163.53
2022-11-25T15:00:26.367Z,101173.47
2022-11-25T15:03:06.998Z,101173.81
2022-11-25T15:05:38.390Z,101176.31
2022-11-25T15:08:08.143Z,101176.53
2022-11-25T15:10:52.801Z,101183.97
2022-11-25T15:13:37.705Z,101169.75
2022-11-25T15:16:15.583Z,101182.03
2022-11-25T15:18:59.181Z,101193.41
2022-11-25T15:21:48.425Z,101193.28
2022-11-25T15:24:36.744Z,101209.44
2022-11-25T15:27:04.336Z,101212.84
2022-11-25T15:29:41.816Z,101207.44
2022-11-25T15:32:16.132Z,101213.63
2022-11-25T15:34:43.568Z,101218.66
2022-11-25T15:37:20.606Z,101224.16
2022-11-25T15:39:47.353Z,101230.47
2022-11-25T15:42:26.006Z,101236.75
2022-11-25T15:44:58.416Z,101241.00
2022-11-25T15:47:30.800Z,101246.16
2022-11-25T15:50:06.080Z,101256.66
2022-11-25T15:52:35.579Z,101261.88
2022-11-25T15:55:07.511Z,101261.88
2022-11-25T15:57:38.790Z,101266.22
2022-11-25T16:00:21.320Z,101267.03
2022-11-25T16:02:50.906Z,101273.00
2022-11-25T16:05:37.878Z,101276.38
2022-11-25T16:08:41.280Z,101274.56
2022-11-25T16:11:15.405Z,101275.44
2022-11-25T16:13:52.957Z,101279.81
2022-11-25T16:16:46.052Z,101281.59
2022-11-25T16:19:16.111Z,101286.13
2022-11-25T16:22:00.978Z,101293.94
2022-11-25T16:24:34.177Z,101296.38
2022-11-25T16:27:24.773Z,101310.44
2022-11-25T16:30:06.910Z,101302.31
2022-11-25T16:32:34.463Z,101302.38
2022-11-25T16:35:19.428Z,101310.31
2022-11-25T16:37:49.153Z,101320.09
2022-11-25T16:40:17.963Z,101317.69
2022-11-25T16:42:52.169Z,101322.97
2022-11-25T16:45:24.040Z,101322.09
2022-11-25T16:47:50.727Z,101335.16
2022-11-25T16:50:20.365Z,101337.41
2022-11-25T16:52:47.642Z,101345.75
2022-11-25T16:55:27.200Z,101342.50
2022-11-25T16:57:54.360Z,101347.78
2022-11-25T17:00:21.373Z,101355.72
2022-11-25T17:02:48.126Z,101362.56
2022-11-25T17:05:23.632Z,101362.69
2022-11-25T17:07:50.637Z,101375.91
2022-11-25T17:10:28.539Z,101378.06
2022-11-25T17:13:23.834Z,101380.34
2022-11-25T17:15:50.564Z,101385.50
2022-11-25T17:18:18.429Z,101389.13
2022-11-25T17:20:46.446Z,101395.16
2022-11-25T17:23:15.847Z,101387.53
2022-11-25T17:25:51.235Z,101401.06
2022-11-25T17:28:18.486Z,101402.31
2022-11-25T17:30:50.618Z,101415.88
2022-11-25T17:33:20.451Z,101411.81
2022-11-25T17:35:47.398Z,101425.31
2022-11-25T17:38:32.098Z,101433.31
2022-11-25T17:40:59.081Z,101436.94
2022-11-25T17:43:34.422Z,101437.66
2022-11-25T17:46:07.282Z,101445.13
2022-11-25T17:48:34.495Z,101453.88
2022-11-25T17:51:24.436Z,101458.91
2022-11-25T17:53:56.601Z,101456.94
2022-11-25T17:56:32.398Z,101461.28
2022-11-25T17:59:10.180Z,101470.00
2022-11-25T18:01:37.098Z,101467.84
2022-11-25T18:04:16.524Z,101469.34
2022-11-25T18:06:43.377Z,101489.75
2022-11-25T18:09:10.028Z,101498.25
2022-11-25T18:11:42.577Z,101489.09
2022-11-25T18:14:31.554Z,101502.19
2022-11-25T18:17:01.439Z,101501.78
2022-11-25T18:19:28.392Z,101510.53
2022-11-25T18:22:00.148Z,101513.06
2022-11-25T18:24:27.015Z,101522.25
2022-11-25T18:26:54.361Z,101521.72
2022-11-25T18:29:52.385Z,101521.81
2022-11-25T18:32:19.641Z,101521.19
2022-11-25T18:34:46.705Z,101533.78
2022-11-25T18:37:13.783Z,101530.47
2022-11-25T18:39:40.911Z,101539.53
2022-11-25T18:42:09.823Z,101537.22
2022-11-25T18:44:45.967Z,101546.97
2022-11-25T18:47:15.302Z,101546.72
2022-11-25T18:49:42.037Z,101546.56
2022-11-25T18:52:09.322Z,101550.16
2022-11-25T18:54:36.359Z,101554.38
2022-11-25T18:57:04.116Z,101562.91
2022-11-25T18:59:35.025Z,101560.19
2022-11-25T19:02:01.987Z,101553.88
2022-11-25T19:04:28.676Z,101566.16
2022-11-25T19:06:55.545Z,101570.38
2022-11-25T19:09:22.335Z,101579.06
2022-11-25T19:11:57.478Z,101578.44
2022-11-25T19:14:33.171Z,101588.53
2022-11-25T19:17:06.469Z,101591.63
2022-11-25T19:19:33.789Z,101595.13
2022-11-25T19:22:01.531Z,101600.34
2022-11-25T19:24:28.808Z,101604.75
2022-11-25T19:26:56.490Z,101601.88
2022-11-25T19:29:32.133Z,101609.19
2022-11-25T19:32:01.232Z,101621.41
2022-11-25T19:34:35.167Z,101626.13
2022-11-25T19:37:02.094Z,101634.91
2022-11-25T19:39:29.523Z,101636.53
2022-11-25T19:41:56.223Z,101638.31
2022-11-25T19:44:22.868Z,101630.06
2022-11-25T19:47:14.375Z,101633.78
2022-11-25T19:49:37.209Z,101644.56
2022-11-25T19:52:04.095Z,101655.25
2022-11-25T19:54:33.743Z,101651.28
2022-11-25T19:57:00.394Z,101653.38
2022-11-25T19:59:29.681Z,101650.44
2022-11-25T20:01:56.401Z,101652.97
2022-11-25T20:04:22.991Z,101652.66
2022-11-25T20:06:50.211Z,101661.81
2022-11-25T20:09:17.271Z,101665.41
2022-11-25T20:11:44.300Z,101682.59
2022-11-25T20:14:12.374Z,101679.28
2022-11-25T20:16:40.702Z,101682.84
2022-11-25T20:19:10.546Z,101679.88
2022-11-25T20:21:38.364Z,101691.97
2022-11-25T20:24:09.588Z,101699.19
2022-11-25T20:26:37.177Z,101702.38
2022-11-25T20:29:15.889Z,101708.44
2022-11-25T20:31:42.576Z,101715.09
2022-11-25T20:34:09.360Z,101714.59
2022-11-25T20:36:40.234Z,101712.16
2022-11-25T20:39:07.178Z,101724.34
2022-11-25T20:41:34.420Z,101718.06
2022-11-25T20:44:01.436Z,101714.72
2022-11-25T20:46:29.982Z,101723.09
2022-11-25T20:48:59.825Z,101723.38
2022-11-25T20:51:26.711Z,101731.59
2022-11-25T20:53:56.595Z,101733.75
2022-11-25T20:56:25.508Z,101739.06
2022-11-25T20:58:52.211Z,101736.00
2022-11-25T21:01:19.226Z,101736.66
2022-11-25T21:03:47.106Z,101733.44
2022-11-25T21:06:28.129Z,101743.03
2022-11-25T21:08:58.127Z,101747.56
2022-11-25T21:11:26.532Z,101751.38
2022-11-25T21:13:54.570Z,101752.22
2022-11-25T21:16:21.524Z,101755.19
2022-11-25T21:18:51.184Z,101757.91
2022-11-25T21:21:30.356Z,101762.00
2022-11-25T21:23:57.246Z,101775.72
2022-11-25T21:26:27.754Z,101773.38
2022-11-25T21:28:54.926Z,101772.44
2022-11-25T21:31:24.029Z,101780.47
2022-11-25T21:33:57.985Z,101771.53
2022-11-25T21:36:29.151Z,101782.31
2022-11-25T21:39:05.114Z,101782.56
2022-11-25T21:41:31.985Z,101798.75
2022-11-25T21:43:58.669Z,101792.91
2022-11-25T21:46:26.021Z,101802.38
2022-11-25T21:48:53.151Z,101803.25
2022-11-25T21:51:24.378Z,101805.69
2022-11-25T21:53:52.160Z,101812.03
2022-11-25T21:56:31.444Z,101812.41
2022-11-25T21:59:05.209Z,101817.41
2022-11-25T22:01:32.194Z,101820.88
2022-11-25T22:03:59.655Z,101825.34
2022-11-25T22:06:30.902Z,101818.06
2022-11-25T22:08:57.983Z,101825.03
2022-11-25T22:11:30.664Z,101826.53
2022-11-25T22:13:57.598Z,101830.09
2022-11-25T22:16:28.204Z,101827.44
2022-11-25T22:18:55.026Z,101828.84
2022-11-25T22:21:22.116Z,101839.78
2022-11-25T22:23:48.813Z,101845.19
2022-11-25T22:26:32.805Z,101849.09
2022-11-25T22:29:00.219Z,101847.91
2022-11-25T22:31:33.823Z,101850.66
2022-11-25T22:34:01.249Z,101850.03
2022-11-25T22:36:36.574Z,101852.22
2022-11-25T22:39:13.165Z,101858.25
2022-11-25T22:41:40.753Z,101864.34
2022-11-25T22:44:15.012Z,101866.81
2022-11-25T22:46:41.707Z,101873.56
2022-11-25T22:49:28.341Z,101876.84
2022-11-25T22:51:55.332Z,101875.06
2022-11-25T22:54:23.316Z,101885.78
2022-11-25T22:56:50.008Z,101884.25
2022-11-25T22:59:16.764Z,101894.34
2022-11-25T23:01:44.119Z,101892.84
2022-11-25T23:04:16.135Z,101904.56
2022-11-25T23:06:42.864Z,101892.66
2022-11-25T23:09:18.591Z,101902.44
2022-11-25T23:11:46.393Z,101904.13
2022-11-25T23:14:13.237Z,101908.44
2022-11-25T23:16:41.060Z,101903.97
2022-11-25T23:19:14.978Z,101908.88
2022-11-25T23:21:41.815Z,101911.34
2022-11-25T23:24:14.098Z,101915.03
2022-11-25T23:26:41.406Z,101921.69
2022-11-25T23:29:08.197Z,101914.06
2022-11-25T23:31:39.077Z,101915.41
2022-11-25T23:34:07.192Z,101921.44
2022-11-25T23:36:39.951Z,101926.22
2022-11-25T23:39:06.526Z,101923.78
2022-11-25T23:41:34.323Z,101923.06
2022-11-25T23:44:36.863Z,101934.16
2022-11-25T23:47:05.180Z,101928.72
2022-11-25T23:49:37.598Z,101934.81
2022-11-25T23:52:08.053Z,101945.75
2022-11-25T23:54:40.572Z,101950.19
2022-11-25T23:57:17.763Z,101949.22
2022-11-25T23:59:45.061Z,101947.56
